createdAt,value
2022-11-17T00:00:51.299Z,6.21
2022-11-17T00:03:20.895Z,6.23
2022-11-17T00:05:50.684Z,6.21
2022-11-17T00:08:20.239Z,6.12
2022-11-17T00:10:49.938Z,6.19
2022-11-17T00:13:34.722Z,6.15
2022-11-17T00:16:04.494Z,6.12
2022-11-17T00:18:46.587Z,6.22
2022-11-17T00:21:23.915Z,6.15
2022-11-17T00:23:53.806Z,6.18
2022-11-17T00:26:25.248Z,6.01
2022-11-17T00:28:59.247Z,6.14
2022-11-17T00:31:42.938Z,6.15
2022-11-17T00:34:16.287Z,6.16
2022-11-17T00:36:48.853Z,6.14
2022-11-17T00:39:20.171Z,6.10
2022-11-17T00:41:49.786Z,6.11
2022-11-17T00:44:22.300Z,6.08
2022-11-17T00:46:51.947Z,6.08
2022-11-17T00:49:25.460Z,6.03
2022-11-17T00:51:55.319Z,6.02
2022-11-17T00:54:25.681Z,6.10
2022-11-17T00:56:55.490Z,5.99
2022-11-17T00:59:27.676Z,6.07
2022-11-17T01:01:57.615Z,6.02
2022-11-17T01:04:27.427Z,6.02
2022-11-17T01:06:57.182Z,6.06
2022-11-17T01:09:27.072Z,5.92
2022-11-17T01:11:57.066Z,5.87
2022-11-17T01:14:32.796Z,5.94
2022-11-17T01:17:02.406Z,5.87
2022-11-17T01:19:32.045Z,5.87
2022-11-17T01:22:01.833Z,5.85
2022-11-17T01:24:31.555Z,5.89
2022-11-17T01:27:01.567Z,5.75
2022-11-17T01:29:34.309Z,5.70
2022-11-17T01:32:04.042Z,5.70
2022-11-17T01:34:34.171Z,5.78
2022-11-17T01:37:16.250Z,5.79
2022-11-17T01:39:46.154Z,5.76
2022-11-17T01:42:19.042Z,5.61
2022-11-17T01:45:03.321Z,5.83
2022-11-17T01:47:39.648Z,5.86
2022-11-17T01:50:22.825Z,5.71
2022-11-17T01:52:54.208Z,5.75
2022-11-17T01:55:26.950Z,5.83
2022-11-17T01:58:01.471Z,5.81
2022-11-17T02:00:34.151Z,5.72
2022-11-17T02:03:07.183Z,5.67
2022-11-17T02:05:44.627Z,5.55
2022-11-17T02:08:14.908Z,5.71
2022-11-17T02:10:51.489Z,5.79
2022-11-17T02:13:22.463Z,5.51
2022-11-17T02:15:54.794Z,5.71
2022-11-17T02:18:25.032Z,5.76
2022-11-17T02:21:17.831Z,5.72
2022-11-17T02:24:14.834Z,5.60
2022-11-17T02:27:10.769Z,5.74
2022-11-17T02:29:50.778Z,5.77
2022-11-17T02:32:27.382Z,5.79
2022-11-17T02:35:07.546Z,5.69
2022-11-17T02:37:46.603Z,5.79
2022-11-17T02:40:22.011Z,5.77
2022-11-17T02:43:12.443Z,5.70
2022-11-17T02:45:51.861Z,5.78
2022-11-17T02:48:28.134Z,5.78
2022-11-17T02:50:59.003Z,5.69
2022-11-17T02:53:30.446Z,5.65
2022-11-17T02:56:03.949Z,5.62
2022-11-17T02:58:33.660Z,5.75
2022-11-17T03:01:30.987Z,5.76
2022-11-17T03:04:21.196Z,5.72
2022-11-17T03:07:01.615Z,5.68
2022-11-17T03:09:41.930Z,5.65
2022-11-17T03:12:17.085Z,5.63
2022-11-17T03:14:55.911Z,5.63
2022-11-17T03:17:33.188Z,5.61
2022-11-17T03:20:09.684Z,5.76
2022-11-17T03:22:50.498Z,5.51
2022-11-17T03:25:23.429Z,5.64
2022-11-17T03:27:58.520Z,5.74
2022-11-17T03:30:34.687Z,5.65
2022-11-17T03:33:15.573Z,5.65
2022-11-17T03:35:51.444Z,5.70
2022-11-17T03:38:26.039Z,5.55
2022-11-17T03:40:58.638Z,5.43
2022-11-17T03:43:31.800Z,5.57
2022-11-17T03:46:06.948Z,5.58
2022-11-17T03:48:48.209Z,5.53
2022-11-17T03:51:21.471Z,5.42
2022-11-17T03:53:52.760Z,5.53
2022-11-17T03:56:34.275Z,5.37
2022-11-17T03:59:07.031Z,5.46
2022-11-17T04:01:38.098Z,5.32
2022-11-17T04:04:10.752Z,5.46
2022-11-17T04:06:40.398Z,5.46
2022-11-17T04:09:10.111Z,5.42
2022-11-17T04:11:52.255Z,5.47
2022-11-17T04:14:34.247Z,5.51
2022-11-17T04:17:03.986Z,5.49
2022-11-17T04:19:36.226Z,5.42
2022-11-17T04:22:06.044Z,5.38
2022-11-17T04:24:35.681Z,5.42
2022-11-17T04:27:17.751Z,5.45
2022-11-17T04:29:47.413Z,5.27
2022-11-17T04:32:17.083Z,5.43
2022-11-17T04:34:49.337Z,5.33
2022-11-17T04:37:19.977Z,5.41
2022-11-17T04:39:49.674Z,5.28
2022-11-17T04:42:16.850Z,5.24
2022-11-17T04:44:46.474Z,5.36
2022-11-17T04:47:17.202Z,5.26
2022-11-17T04:49:49.401Z,5.32
2022-11-17T04:52:19.060Z,5.22
2022-11-17T04:54:48.753Z,5.18
2022-11-17T04:57:18.411Z,5.25
2022-11-17T04:59:48.134Z,5.31
2022-11-17T05:02:17.844Z,5.15
2022-11-17T05:04:59.307Z,5.22
2022-11-17T05:07:29.017Z,5.23
2022-11-17T05:10:01.606Z,5.21
2022-11-17T05:12:43.692Z,5.24
2022-11-17T05:15:33.400Z,5.22
2022-11-17T05:18:00.671Z,5.09
2022-11-17T05:20:35.540Z,5.24
2022-11-17T05:23:17.650Z,5.21
2022-11-17T05:25:47.248Z,5.22
2022-11-17T05:28:16.906Z,5.18
2022-11-17T05:30:46.564Z,5.14
2022-11-17T05:33:16.197Z,5.06
2022-11-17T05:35:48.632Z,5.20
2022-11-17T05:38:18.265Z,5.17
2022-11-17T05:40:47.968Z,5.17
2022-11-17T05:43:17.696Z,5.23
2022-11-17T05:45:48.748Z,5.20
2022-11-17T05:48:18.800Z,5.22
2022-11-17T05:50:51.149Z,5.12
2022-11-17T05:53:20.927Z,4.96
2022-11-17T05:55:50.755Z,4.85
2022-11-17T05:58:25.337Z,5.04
2022-11-17T06:00:57.210Z,5.03
2022-11-17T06:03:32.045Z,4.93
2022-11-17T06:06:04.505Z,4.95
2022-11-17T06:08:38.679Z,4.93
2022-11-17T06:11:08.719Z,4.83
2022-11-17T06:13:38.544Z,4.94
2022-11-17T06:16:12.971Z,5.00
2022-11-17T06:18:48.039Z,4.98
2022-11-17T06:21:23.487Z,5.00
2022-11-17T06:23:53.753Z,4.99
2022-11-17T06:26:23.495Z,4.93
2022-11-17T06:28:54.249Z,4.98
2022-11-17T06:31:24.327Z,4.95
2022-11-17T06:33:54.115Z,4.92
2022-11-17T06:36:27.875Z,4.91
2022-11-17T06:38:57.516Z,4.93
2022-11-17T06:41:27.254Z,4.91
2022-11-17T06:43:58.973Z,4.87
2022-11-17T06:46:38.060Z,4.71
2022-11-17T06:49:09.223Z,4.67
2022-11-17T06:51:45.115Z,4.82
2022-11-17T06:54:15.891Z,4.78
2022-11-17T06:56:45.483Z,4.66
2022-11-17T06:59:16.150Z,4.78
2022-11-17T07:01:46.185Z,4.76
2022-11-17T07:04:15.960Z,4.71
2022-11-17T07:06:48.332Z,4.73
2022-11-17T07:09:18.186Z,4.72
2022-11-17T07:11:47.752Z,4.64
2022-11-17T07:14:17.448Z,4.63
2022-11-17T07:16:47.074Z,4.68
2022-11-17T07:19:16.676Z,4.71
2022-11-17T07:21:48.955Z,4.72
2022-11-17T07:24:18.537Z,4.68
2022-11-17T07:26:48.069Z,4.72
2022-11-17T07:29:17.746Z,4.73
2022-11-17T07:31:47.344Z,4.69
2022-11-17T07:34:17.045Z,4.69
2022-11-17T07:36:49.242Z,4.64
2022-11-17T07:39:21.820Z,4.62
2022-11-17T07:41:51.609Z,4.62
2022-11-17T07:44:21.114Z,4.59
2022-11-17T07:46:50.651Z,4.62
2022-11-17T07:49:20.250Z,4.63
2022-11-17T07:51:52.611Z,4.62
2022-11-17T07:54:22.308Z,4.52
2022-11-17T07:56:51.932Z,4.48
2022-11-17T07:59:21.825Z,4.56
2022-11-17T08:01:51.401Z,4.46
2022-11-17T08:04:20.958Z,4.57
2022-11-17T08:06:53.386Z,4.54
2022-11-17T08:09:22.959Z,4.52
2022-11-17T08:11:52.579Z,4.55
2022-11-17T08:14:22.102Z,4.55
2022-11-17T08:16:51.654Z,4.48
2022-11-17T08:19:21.262Z,4.48
2022-11-17T08:21:53.747Z,4.58
2022-11-17T08:24:23.443Z,4.49
2022-11-17T08:26:53.614Z,4.62
2022-11-17T08:29:24.521Z,4.54
2022-11-17T08:31:54.080Z,4.54
2022-11-17T08:34:23.617Z,4.53
2022-11-17T08:36:56.487Z,4.49
2022-11-17T08:39:25.974Z,4.42
2022-11-17T08:41:55.748Z,4.45
2022-11-17T08:44:25.360Z,4.47
2022-11-17T08:46:54.883Z,4.50
2022-11-17T08:49:24.556Z,4.42
2022-11-17T08:51:56.728Z,4.45
2022-11-17T08:54:26.265Z,4.46
2022-11-17T08:56:59.955Z,4.50
2022-11-17T08:59:29.658Z,4.33
2022-11-17T09:01:59.148Z,4.38
2022-11-17T09:04:28.829Z,4.44
2022-11-17T09:07:01.068Z,4.42
2022-11-17T09:09:32.961Z,4.50
2022-11-17T09:12:02.995Z,4.47
2022-11-17T09:14:32.567Z,4.48
2022-11-17T09:17:02.387Z,4.45
2022-11-17T09:19:32.027Z,4.50
2022-11-17T09:22:04.224Z,4.47
2022-11-17T09:24:33.805Z,4.49
2022-11-17T09:27:03.706Z,4.48
2022-11-17T09:29:33.585Z,4.47
2022-11-17T09:32:03.135Z,4.52
2022-11-17T09:34:32.863Z,4.51
2022-11-17T09:37:05.057Z,4.54
2022-11-17T09:39:34.638Z,4.60
2022-11-17T09:42:04.314Z,4.64
2022-11-17T09:44:42.436Z,4.62
2022-11-17T09:47:26.073Z,4.64
2022-11-17T09:50:00.256Z,4.70
2022-11-17T09:52:38.303Z,4.67
2022-11-17T09:55:34.149Z,4.63
2022-11-17T09:58:18.210Z,4.68
2022-11-17T10:00:54.336Z,4.70
2022-11-17T10:03:25.641Z,4.73
2022-11-17T10:06:00.935Z,4.69
2022-11-17T10:09:00.219Z,4.78
2022-11-17T10:11:36.455Z,4.50
2022-11-17T10:14:14.582Z,4.73
2022-11-17T10:16:47.823Z,4.74
2022-11-17T10:19:19.743Z,4.69
2022-11-17T10:21:53.156Z,4.74
2022-11-17T10:24:42.317Z,4.72
2022-11-17T10:27:27.115Z,4.81
2022-11-17T10:30:02.015Z,4.76
2022-11-17T10:32:34.723Z,4.74
2022-11-17T10:35:18.641Z,4.74
2022-11-17T10:37:56.242Z,4.83
2022-11-17T10:40:30.117Z,4.84
2022-11-17T10:43:07.817Z,4.92
2022-11-17T10:45:37.557Z,4.94
2022-11-17T10:48:22.829Z,4.94
2022-11-17T10:50:57.861Z,4.96
2022-11-17T10:53:42.818Z,4.99
2022-11-17T10:56:21.121Z,5.01
2022-11-17T10:58:59.836Z,4.98
2022-11-17T11:01:37.871Z,5.03
2022-11-17T11:04:09.563Z,5.04
2022-11-17T11:06:39.236Z,4.98
2022-11-17T11:09:14.630Z,5.05
2022-11-17T11:11:49.575Z,5.08
2022-11-17T11:14:25.889Z,5.10
2022-11-17T11:16:57.185Z,5.09
2022-11-17T11:19:26.820Z,5.07
2022-11-17T11:22:23.211Z,5.07
2022-11-17T11:24:58.089Z,5.12
2022-11-17T11:27:44.720Z,5.16
2022-11-17T11:30:17.389Z,5.18
2022-11-17T11:33:01.514Z,5.19
2022-11-17T11:35:42.610Z,5.20
2022-11-17T11:38:28.471Z,5.26
2022-11-17T11:41:12.949Z,5.19
2022-11-17T11:43:55.752Z,5.20
2022-11-17T11:46:34.787Z,5.27
2022-11-17T11:49:14.684Z,5.25
2022-11-17T11:51:55.605Z,5.29
2022-11-17T11:54:38.173Z,5.24
2022-11-17T11:57:15.250Z,5.27
2022-11-17T11:59:59.477Z,5.31
2022-11-17T12:02:38.024Z,5.33
2022-11-17T12:05:19.766Z,5.36
2022-11-17T12:07:53.832Z,5.28
2022-11-17T12:10:31.288Z,5.27
2022-11-17T12:13:01.816Z,5.31
2022-11-17T12:15:40.523Z,5.41
2022-11-17T12:18:16.827Z,5.45
2022-11-17T12:21:14.269Z,5.45
2022-11-17T12:24:13.853Z,5.39
2022-11-17T12:26:43.812Z,5.35
2022-11-17T12:29:33.722Z,5.38
2022-11-17T12:32:06.453Z,5.41
2022-11-17T12:34:37.429Z,5.45
2022-11-17T12:37:21.846Z,5.39
2022-11-17T12:39:59.548Z,5.42
2022-11-17T12:42:29.398Z,5.44
2022-11-17T12:45:04.307Z,5.49
2022-11-17T12:47:39.084Z,5.46
2022-11-17T12:50:35.039Z,5.44
2022-11-17T12:53:31.397Z,5.38
2022-11-17T12:56:31.714Z,5.49
2022-11-17T12:59:35.632Z,5.45
2022-11-17T13:02:18.416Z,5.41
2022-11-17T13:04:55.395Z,5.37
2022-11-17T13:07:27.325Z,5.38
2022-11-17T13:09:59.473Z,5.45
2022-11-17T13:12:30.834Z,5.49
2022-11-17T13:15:02.780Z,5.44
2022-11-17T13:17:36.439Z,5.50
2022-11-17T13:20:22.572Z,5.50
2022-11-17T13:23:02.563Z,5.47
2022-11-17T13:25:32.244Z,5.53
2022-11-17T13:28:05.062Z,5.53
2022-11-17T13:30:36.179Z,5.56
2022-11-17T13:33:06.450Z,5.50
2022-11-17T13:35:39.263Z,5.49
2022-11-17T13:38:18.590Z,5.56
2022-11-17T13:40:50.010Z,5.51
2022-11-17T13:43:21.978Z,5.52
2022-11-17T13:45:52.175Z,5.53
2022-11-17T13:48:35.880Z,5.49
2022-11-17T13:51:39.229Z,5.49
2022-11-17T13:54:18.133Z,5.53
2022-11-17T13:56:54.360Z,5.52
2022-11-17T13:59:28.342Z,5.54
2022-11-17T14:02:27.025Z,5.52
2022-11-17T14:05:23.145Z,5.47
2022-11-17T14:07:57.021Z,5.51
2022-11-17T14:10:32.635Z,5.47
2022-11-17T14:13:25.239Z,5.52
2022-11-17T14:16:00.790Z,5.59
2022-11-17T14:18:34.272Z,5.54
2022-11-17T14:21:13.553Z,5.54
2022-11-17T14:23:47.521Z,5.54
2022-11-17T14:26:22.136Z,5.49
2022-11-17T14:28:53.137Z,5.44
2022-11-17T14:31:23.073Z,5.44
2022-11-17T14:33:52.633Z,5.53
2022-11-17T14:36:22.333Z,5.53
2022-11-17T14:38:54.986Z,5.48
2022-11-17T14:41:24.643Z,5.45
2022-11-17T14:43:54.216Z,5.48
2022-11-17T14:46:26.679Z,5.47
2022-11-17T14:48:56.867Z,5.50
2022-11-17T14:51:26.566Z,5.49
2022-11-17T14:53:58.973Z,5.51
2022-11-17T14:56:28.912Z,5.52
2022-11-17T14:59:00.929Z,5.43
2022-11-17T15:01:32.417Z,5.50
2022-11-17T15:04:21.083Z,5.46
2022-11-17T15:06:53.593Z,5.52
2022-11-17T15:09:25.895Z,5.51
2022-11-17T15:11:55.510Z,5.48
2022-11-17T15:14:25.492Z,5.52
2022-11-17T15:16:55.307Z,5.53
2022-11-17T15:19:24.901Z,5.51
2022-11-17T15:21:54.565Z,5.49
2022-11-17T15:24:27.123Z,5.49
2022-11-17T15:26:56.688Z,5.50
2022-11-17T15:29:26.374Z,5.53
2022-11-17T15:31:58.926Z,5.52
2022-11-17T15:34:28.701Z,5.50
2022-11-17T15:36:58.375Z,5.53
2022-11-17T15:39:30.649Z,5.54
2022-11-17T15:42:00.327Z,5.52
2022-11-17T15:44:29.913Z,5.52
2022-11-17T15:46:59.843Z,5.46
2022-11-17T15:49:29.394Z,5.57
2022-11-17T15:51:59.060Z,5.50
2022-11-17T15:54:31.485Z,5.57
2022-11-17T15:57:02.893Z,5.52
2022-11-17T15:59:32.754Z,5.52
2022-11-17T16:02:10.305Z,5.54
2022-11-17T16:04:39.952Z,5.58
2022-11-17T16:07:09.543Z,5.56
2022-11-17T16:09:43.898Z,5.53
2022-11-17T16:12:17.002Z,5.50
2022-11-17T16:14:46.773Z,5.52
2022-11-17T16:17:16.347Z,5.48
2022-11-17T16:19:45.918Z,5.52
2022-11-17T16:22:16.619Z,5.53
2022-11-17T16:24:48.989Z,5.49
2022-11-17T16:27:18.683Z,5.51
2022-11-17T16:29:48.666Z,5.51
2022-11-17T16:32:18.871Z,5.42
2022-11-17T16:34:50.533Z,5.48
2022-11-17T16:37:20.615Z,5.51
2022-11-17T16:39:53.337Z,5.55
2022-11-17T16:42:23.369Z,5.54
2022-11-17T16:44:53.491Z,5.46
2022-11-17T16:47:23.843Z,5.52
2022-11-17T16:49:53.937Z,5.52
2022-11-17T16:52:23.856Z,5.54
2022-11-17T16:54:59.211Z,5.50
2022-11-17T16:57:33.304Z,5.50
2022-11-17T17:00:03.434Z,5.55
2022-11-17T17:02:34.937Z,5.52
2022-11-17T17:05:05.311Z,5.54
2022-11-17T17:07:35.063Z,5.54
2022-11-17T17:10:08.319Z,5.45
2022-11-17T17:12:38.221Z,5.53
2022-11-17T17:15:10.360Z,5.57
2022-11-17T17:17:40.238Z,5.49
2022-11-17T17:20:12.416Z,5.57
2022-11-17T17:22:42.396Z,5.56
2022-11-17T17:25:15.592Z,5.56
2022-11-17T17:27:45.557Z,5.51
2022-11-17T17:30:17.356Z,5.51
2022-11-17T17:32:47.389Z,5.51
2022-11-17T17:35:17.583Z,5.52
2022-11-17T17:37:47.426Z,5.53
2022-11-17T17:40:20.293Z,5.53
2022-11-17T17:42:50.495Z,5.50
2022-11-17T17:45:20.445Z,5.56
2022-11-17T17:47:50.569Z,5.58
2022-11-17T17:50:20.699Z,5.58
2022-11-17T17:52:50.559Z,5.52
2022-11-17T17:55:24.089Z,5.54
2022-11-17T17:57:53.933Z,5.54
2022-11-17T18:00:24.204Z,5.50
2022-11-17T18:02:54.506Z,5.42
2022-11-17T18:05:25.080Z,5.42
2022-11-17T18:07:55.111Z,5.50
2022-11-17T18:10:27.302Z,5.50
2022-11-17T18:12:56.888Z,5.50
2022-11-17T18:15:26.467Z,5.44
2022-11-17T18:17:56.023Z,5.45
2022-11-17T18:20:25.798Z,5.49
2022-11-17T18:22:55.515Z,5.44
2022-11-17T18:25:27.903Z,5.46
2022-11-17T18:27:57.414Z,5.45
2022-11-17T18:30:26.946Z,5.43
2022-11-17T18:33:00.309Z,5.45
2022-11-17T18:35:32.347Z,5.45
2022-11-17T18:38:02.117Z,5.44
2022-11-17T18:40:34.427Z,5.49
2022-11-17T18:43:04.086Z,5.44
2022-11-17T18:45:33.666Z,5.46
2022-11-17T18:48:03.170Z,5.44
2022-11-17T18:50:32.897Z,5.45
2022-11-17T18:53:02.757Z,5.46
2022-11-17T18:55:34.983Z,5.46
2022-11-17T18:58:04.496Z,5.37
2022-11-17T19:00:34.143Z,5.42
2022-11-17T19:03:03.835Z,5.38
2022-11-17T19:05:36.310Z,5.42
2022-11-17T19:08:06.283Z,5.40
2022-11-17T19:10:38.673Z,5.42
2022-11-17T19:13:08.278Z,5.42
2022-11-17T19:15:37.787Z,5.31
2022-11-17T19:18:07.365Z,5.40
2022-11-17T19:20:37.175Z,5.38
2022-11-17T19:23:06.678Z,5.39
2022-11-17T19:25:42.891Z,5.38
2022-11-17T19:28:14.943Z,5.37
2022-11-17T19:30:44.802Z,5.32
2022-11-17T19:33:15.181Z,5.34
2022-11-17T19:35:44.727Z,5.41
2022-11-17T19:38:15.190Z,5.35
2022-11-17T19:40:47.391Z,5.38
2022-11-17T19:43:19.387Z,5.35
2022-11-17T19:45:48.979Z,5.29
2022-11-17T19:48:18.777Z,5.37
2022-11-17T19:50:54.494Z,5.36
2022-11-17T19:53:26.205Z,5.31
2022-11-17T19:55:58.639Z,5.37
2022-11-17T19:58:28.175Z,5.34
2022-11-17T20:00:57.820Z,5.28
2022-11-17T20:03:27.877Z,5.41
2022-11-17T20:06:02.232Z,5.43
2022-11-17T20:08:32.702Z,5.41
2022-11-17T20:11:10.569Z,5.41
2022-11-17T20:13:41.777Z,5.45
2022-11-17T20:16:14.754Z,5.43
2022-11-17T20:18:45.098Z,5.42
2022-11-17T20:21:16.359Z,5.48
2022-11-17T20:23:46.299Z,5.46
2022-11-17T20:26:21.342Z,5.46
2022-11-17T20:28:51.857Z,5.43
2022-11-17T20:31:24.487Z,5.49
2022-11-17T20:33:57.810Z,5.48
2022-11-17T20:36:27.902Z,5.49
2022-11-17T20:38:59.598Z,5.52
2022-11-17T20:41:33.015Z,5.48
2022-11-17T20:44:03.764Z,5.50
2022-11-17T20:46:34.077Z,5.44
2022-11-17T20:49:04.096Z,5.45
2022-11-17T20:51:33.972Z,5.45
2022-11-17T20:54:04.191Z,5.45
2022-11-17T20:56:36.668Z,5.46
2022-11-17T20:59:07.079Z,5.47
2022-11-17T21:01:36.854Z,5.36
2022-11-17T21:04:06.643Z,5.42
2022-11-17T21:06:36.655Z,5.41
2022-11-17T21:09:06.287Z,5.42
2022-11-17T21:11:51.346Z,5.42
2022-11-17T21:14:21.289Z,5.36
2022-11-17T21:16:51.292Z,5.42
2022-11-17T21:19:21.449Z,5.30
2022-11-17T21:21:54.098Z,5.39
2022-11-17T21:24:26.098Z,5.37
2022-11-17T21:26:58.710Z,5.40
2022-11-17T21:29:28.451Z,5.30
2022-11-17T21:31:58.253Z,5.32
2022-11-17T21:34:28.807Z,5.34
2022-11-17T21:36:59.192Z,5.37
2022-11-17T21:39:29.168Z,5.33
2022-11-17T21:42:01.600Z,5.38
2022-11-17T21:44:31.472Z,5.37
2022-11-17T21:47:01.357Z,5.27
2022-11-17T21:49:31.410Z,5.38
2022-11-17T21:52:01.212Z,5.38
2022-11-17T21:54:31.405Z,5.36
2022-11-17T21:57:04.007Z,5.34
2022-11-17T21:59:33.942Z,5.31
2022-11-17T22:02:04.117Z,5.33
2022-11-17T22:04:34.134Z,5.35
2022-11-17T22:07:04.176Z,5.33
2022-11-17T22:09:34.228Z,5.38
2022-11-17T22:12:07.601Z,5.31
2022-11-17T22:14:37.681Z,5.26
2022-11-17T22:17:07.774Z,5.28
2022-11-17T22:19:40.816Z,5.24
2022-11-17T22:22:10.772Z,5.25
2022-11-17T22:24:41.629Z,5.27
2022-11-17T22:27:16.933Z,5.27
2022-11-17T22:29:47.012Z,5.23
2022-11-17T22:32:17.076Z,5.25
2022-11-17T22:34:47.205Z,5.28
2022-11-17T22:37:19.297Z,5.16
2022-11-17T22:39:49.378Z,5.25
2022-11-17T22:42:21.915Z,5.26
2022-11-17T22:44:52.260Z,5.25
2022-11-17T22:47:22.381Z,5.25
2022-11-17T22:49:52.259Z,5.26
2022-11-17T22:52:22.243Z,5.20
2022-11-17T22:54:52.044Z,5.26
2022-11-17T22:57:24.504Z,5.15
2022-11-17T22:59:54.618Z,5.24
2022-11-17T23:02:24.404Z,5.25
2022-11-17T23:04:54.249Z,5.23
2022-11-17T23:07:24.328Z,5.24
2022-11-17T23:09:54.093Z,5.23
2022-11-17T23:12:26.525Z,5.19
2022-11-17T23:14:56.565Z,5.25
2022-11-17T23:17:26.440Z,5.21
2022-11-17T23:19:56.191Z,5.23
2022-11-17T23:22:25.861Z,5.20
2022-11-17T23:24:55.558Z,5.17
2022-11-17T23:27:28.361Z,5.19
2022-11-17T23:29:57.945Z,5.17
2022-11-17T23:32:27.653Z,5.18
2022-11-17T23:34:57.477Z,5.13
2022-11-17T23:37:27.341Z,5.12
2022-11-17T23:39:57.082Z,5.13
2022-11-17T23:42:32.422Z,5.02
2022-11-17T23:45:02.789Z,5.08
2022-11-17T23:47:32.967Z,5.07
2022-11-17T23:50:02.736Z,5.06
2022-11-17T23:52:32.626Z,5.01
2022-11-17T23:55:02.561Z,4.97
2022-11-17T23:57:35.155Z,5.01
